Time;durP1;ratioP1;P1;durP2;ratioP2;P2;SDS_P1;SDS_P2;PMS_P1;PMS_P2;Temp;Humidity;BMP_temperature;BMP_pressure;BME280_temperature;BME280_humidity;BME280_pressure;Samples;Min_cycle;Max_cycle;Signal;HPM_P1;HPM_P2
2023/01/20 00:01:31;;;;;;;47.55;17.77;;;;;;;-0.46;100.00;100975.25;5041334;28;20503;-76
2023/01/20 00:03:57;;;;;;;35.40;16.13;;;;;;;-0.45;100.00;100983.22;5030352;28;20029;-78
2023/01/20 00:06:24;;;;;;;43.47;17.13;;;;;;;-0.46;100.00;100970.78;5041381;28;20108;-76
2023/01/20 00:08:54;;;;;;;42.63;17.58;;;;;;;-0.43;100.00;100986.72;5030150;28;20068;-76
2023/01/20 00:11:20;;;;;;;39.97;17.58;;;;;;;-0.42;100.00;100992.94;5030095;28;20123;-76
2023/01/20 00:13:46;;;;;;;44.63;16.55;;;;;;;-0.43;100.00;100991.19;5031383;28;20076;-76
2023/01/20 00:16:11;;;;;;;40.40;18.75;;;;;;;-0.44;100.00;100987.66;5034617;28;20029;-76
2023/01/20 00:18:38;;;;;;;43.53;19.23;;;;;;;-0.43;100.00;100994.75;5051032;28;20158;-76
2023/01/20 00:21:10;;;;;;;45.78;20.80;;;;;;;-0.41;100.00;101005.41;5035968;28;20132;-76
2023/01/20 00:23:36;;;;;;;43.35;17.90;;;;;;;-0.42;100.00;101000.97;5030934;28;20083;-76
2023/01/20 00:26:04;;;;;;;49.20;20.08;;;;;;;-0.45;100.00;101003.72;5031274;28;20122;-76
2023/01/20 00:28:30;;;;;;;50.60;21.25;;;;;;;-0.44;100.00;101011.69;5030802;28;20029;-76
2023/01/20 00:30:55;;;;;;;55.40;21.55;;;;;;;-0.44;100.00;101008.16;5030779;28;20455;-76
2023/01/20 00:33:20;;;;;;;58.13;20.80;;;;;;;-0.47;100.00;101002.88;5012995;28;20146;-76
2023/01/20 00:35:45;;;;;;;57.90;21.02;;;;;;;-0.45;100.00;101011.75;5030856;28;20120;-76
2023/01/20 00:38:14;;;;;;;54.97;20.73;;;;;;;-0.48;100.00;101011.81;5030634;28;20063;-76
2023/01/20 00:40:39;;;;;;;52.55;19.65;;;;;;;-0.46;100.00;101010.00;5031172;28;20045;-76
2023/01/20 00:43:05;;;;;;;53.55;20.13;;;;;;;-0.49;100.00;101007.38;5030830;28;20045;-75
2023/01/20 00:45:30;;;;;;;51.63;19.65;;;;;;;-0.50;100.00;101017.19;5029430;28;20038;-76
2023/01/20 00:47:55;;;;;;;49.85;19.88;;;;;;;-0.48;100.00;101017.16;5030450;28;20511;-76
2023/01/20 00:50:21;;;;;;;55.22;20.63;;;;;;;-0.50;100.00;101010.97;5030557;28;20485;-76
2023/01/20 00:52:46;;;;;;;52.78;20.48;;;;;;;-0.51;100.00;101015.44;5031201;28;20130;-76
2023/01/20 00:55:12;;;;;;;61.53;21.50;;;;;;;-0.52;100.00;101011.88;5029486;28;20042;-76
2023/01/20 00:57:37;;;;;;;58.35;21.75;;;;;;;-0.53;100.00;101010.13;5012619;28;20117;-76
2023/01/20 01:00:03;;;;;;;60.42;20.90;;;;;;;-0.55;100.00;101013.75;5029527;28;20539;-76
2023/01/20 01:02:28;;;;;;;52.45;19.20;;;;;;;-0.54;100.00;101016.38;5030213;28;20370;-76
2023/01/20 01:04:54;;;;;;;51.55;20.40;;;;;;;-0.54;100.00;101019.06;5012764;28;20059;-76
2023/01/20 01:07:19;;;;;;;54.63;21.50;;;;;;;-0.54;100.00;101020.84;5030342;28;20528;-75
2023/01/20 01:09:44;;;;;;;54.55;18.88;;;;;;;-0.52;100.00;101024.34;5012457;28;20500;-76
2023/01/20 01:12:10;;;;;;;57.22;21.38;;;;;;;-0.56;100.00;101025.34;5029138;28;20033;-76
2023/01/20 01:14:35;;;;;;;53.95;20.25;;;;;;;-0.55;100.00;101027.13;5030648;28;20465;-78
2023/01/20 01:17:01;;;;;;;50.42;20.98;;;;;;;-0.55;100.00;101033.34;5029153;28;20068;-76
2023/01/20 01:19:26;;;;;;;52.50;18.88;;;;;;;-0.56;100.00;101044.03;5028897;28;20041;-76
2023/01/20 01:21:51;;;;;;;52.45;20.35;;;;;;;-0.57;100.00;101043.16;5012076;28;20026;-76
2023/01/20 01:24:17;;;;;;;51.50;20.60;;;;;;;-0.58;100.00;101044.09;5012478;28;20040;-76
2023/01/20 01:26:42;;;;;;;48.35;18.80;;;;;;;-0.56;100.00;101052.06;5028927;28;20030;-76
2023/01/20 01:29:07;;;;;;;47.45;19.17;;;;;;;-0.56;100.00;101055.63;5038825;28;20053;-76
2023/01/20 01:31:33;;;;;;;54.28;19.33;;;;;;;-0.59;100.00;101038.78;5041172;28;20037;-77
2023/01/20 01:33:58;;;;;;;51.33;18.85;;;;;;;-0.57;100.00;101045.84;5050200;28;20490;-75
2023/01/20 01:36:23;;;;;;;47.80;17.63;;;;;;;-0.56;100.00;101049.38;5043470;28;20464;-76
2023/01/20 01:38:49;;;;;;;48.45;18.13;;;;;;;-0.56;100.00;101050.31;5028913;28;20025;-75
2023/01/20 01:41:16;;;;;;;52.45;19.27;;;;;;;-0.53;100.00;101062.69;5028549;28;20033;-77
2023/01/20 01:44:05;;;;;;;46.55;18.20;;;;;;;-0.52;100.00;101056.41;5030294;28;20041;-77
2023/01/20 01:46:31;;;;;;;48.60;16.58;;;;;;;-0.50;100.00;101064.44;5029900;28;20017;-76
2023/01/20 01:49:01;;;;;;;48.83;17.63;;;;;;;-0.50;100.00;101065.31;5012347;28;20033;-76
2023/01/20 01:51:31;;;;;;;49.47;18.58;;;;;;;-0.50;100.00;101065.31;5028838;28;20091;-75
2023/01/20 01:54:16;;;;;;;45.55;15.98;;;;;;;-0.46;100.00;101074.13;5028514;28;20500;-76
2023/01/20 01:56:43;;;;;;;44.05;16.20;;;;;;;-0.45;100.00;101063.41;5049781;28;20039;-75
2023/01/20 01:59:11;;;;;;;46.88;18.35;;;;;;;-0.47;100.00;101062.53;5044854;28;20554;-76
2023/01/20 02:01:39;;;;;;;58.20;18.33;;;;;;;-0.46;100.00;101058.09;5032705;28;20072;-76
2023/01/20 02:04:09;;;;;;;50.58;18.42;;;;;;;-0.45;100.00;101066.06;5029643;28;20037;-75
2023/01/20 02:06:39;;;;;;;50.25;17.80;;;;;;;-0.48;100.00;101057.25;5029192;28;20075;-77
2023/01/20 02:09:05;;;;;;;52.83;16.88;;;;;;;-0.45;100.00;101070.53;5030916;28;20452;-76
2023/01/20 02:11:37;;;;;;;46.42;17.42;;;;;;;-0.49;100.00;101061.72;5033581;28;20037;-75
2023/01/20 02:14:03;;;;;;;50.07;17.63;;;;;;;-0.45;100.00;101062.53;5033514;28;20068;-75
2023/01/20 02:16:44;;;;;;;51.92;18.58;;;;;;;-0.43;100.00;101068.69;5043999;28;20323;-75
2023/01/20 02:19:21;;;;;;;51.30;17.55;;;;;;;-0.41;100.00;101064.22;5032105;28;20448;-75
2023/01/20 02:22:13;;;;;;;47.83;16.85;;;;;;;-0.42;100.00;101062.44;5033463;28;20055;-75
2023/01/20 02:24:57;;;;;;;45.03;16.60;;;;;;;-0.41;100.00;101061.53;5031862;28;20427;-76
2023/01/20 02:27:42;;;;;;;51.95;17.05;;;;;;;-0.42;100.00;101066.00;5032968;28;20029;-75
2023/01/20 02:30:25;;;;;;;51.83;16.65;;;;;;;-0.45;100.00;101060.72;5031549;28;20038;-75
2023/01/20 02:33:04;;;;;;;56.80;20.33;;;;;;;-0.45;100.00;101068.75;5031212;28;20033;-74
2023/01/20 02:35:44;;;;;;;53.20;18.42;;;;;;;-0.43;100.00;101074.03;5031743;28;20504;-76
2023/01/20 02:38:13;;;;;;;49.83;17.60;;;;;;;-0.44;100.00;101083.84;5033492;28;20060;-75
2023/01/20 02:41:02;;;;;;;56.13;18.73;;;;;;;-0.44;100.00;101077.63;5031936;28;20045;-75
2023/01/20 02:43:39;;;;;;;53.03;17.05;;;;;;;-0.47;100.00;101083.03;5032684;28;20097;-75
2023/01/20 02:46:14;;;;;;;50.65;17.30;;;;;;;-0.47;100.00;101080.38;5031462;28;20029;-75
2023/01/20 02:48:50;;;;;;;48.42;17.33;;;;;;;-0.50;100.00;101072.44;5033184;28;20048;-75
2023/01/20 02:51:24;;;;;;;50.00;18.10;;;;;;;-0.48;100.00;101075.94;5031573;28;20044;-75
2023/01/20 02:53:59;;;;;;;52.67;15.77;;;;;;;-0.50;100.00;101077.78;5031597;28;20041;-75
2023/01/20 02:56:28;;;;;;;43.72;15.35;;;;;;;-0.49;100.00;101080.41;5032595;28;20523;-75
2023/01/20 02:59:05;;;;;;;44.20;16.95;;;;;;;-0.50;100.00;101077.78;5031076;28;20393;-75
2023/01/20 03:01:38;;;;;;;47.25;16.48;;;;;;;-0.49;100.00;101076.88;5032628;28;20033;-75
2023/01/20 03:04:06;;;;;;;43.95;16.02;;;;;;;-0.49;100.00;101082.22;5032452;28;20042;-76
2023/01/20 03:06:36;;;;;;;53.03;17.80;;;;;;;-0.51;100.00;101079.59;5032601;28;20056;-75
2023/01/20 03:09:08;;;;;;;44.20;16.35;;;;;;;-0.54;100.00;101067.16;5032333;28;20453;-75
2023/01/20 03:11:38;;;;;;;52.10;17.52;;;;;;;-0.55;100.00;101072.56;5032487;28;20041;-76
2023/01/20 03:14:11;;;;;;;52.80;17.77;;;;;;;-0.55;100.00;101080.56;5032547;28;20091;-75
2023/01/20 03:16:38;;;;;;;44.05;16.98;;;;;;;-0.60;100.00;101072.66;5044188;28;20473;-75
2023/01/20 03:19:03;;;;;;;48.03;16.65;;;;;;;-0.58;100.00;101092.19;5030425;28;20028;-76
2023/01/20 03:21:29;;;;;;;48.47;18.05;;;;;;;-0.57;100.00;101095.72;5030110;28;20037;-75
2023/01/20 03:24:01;;;;;;;54.75;18.20;;;;;;;-0.58;100.00;101094.84;5032123;28;20033;-75
2023/01/20 03:26:27;;;;;;;52.15;18.35;;;;;;;-0.57;100.00;101093.06;5032177;28;20337;-76
2023/01/20 03:28:53;;;;;;;50.28;16.77;;;;;;;-0.60;100.00;101094.03;5031505;28;20117;-76
2023/01/20 03:31:43;;;;;;;50.08;17.38;;;;;;;-0.58;100.00;101100.19;5032429;28;20022;-76
2023/01/20 03:34:12;;;;;;;49.03;16.45;;;;;;;-0.57;100.00;101109.97;5032037;28;20116;-76
2023/01/20 03:36:39;;;;;;;50.92;17.08;;;;;;;-0.58;100.00;101110.88;5032107;28;20018;-76
2023/01/20 03:39:05;;;;;;;51.63;17.33;;;;;;;-0.56;100.00;101108.16;5030384;28;20033;-75
2023/01/20 03:41:47;;;;;;;53.65;16.25;;;;;;;-0.56;100.00;101110.84;5031490;28;20053;-75
2023/01/20 03:44:24;;;;;;;46.55;16.77;;;;;;;-0.56;100.00;101098.38;5031595;28;20051;-75
2023/01/20 03:47:07;;;;;;;52.22;16.17;;;;;;;-0.54;100.00;101109.03;5031734;28;20037;-75
2023/01/20 03:49:35;;;;;;;;;;;;;;;-0.51;100.00;101106.31;5032743;28;20061;-76
2023/01/20 03:52:07;;;;;;;58.70;17.13;;;;;;;-0.56;100.00;101109.06;5030078;28;20372;-76
2023/01/20 03:54:46;;;;;;;50.92;17.50;;;;;;;-0.55;100.00;101115.31;5030299;28;20029;-75
2023/01/20 03:57:18;;;;;;;50.15;17.27;;;;;;;-0.56;100.00;101117.09;5031695;28;20041;-76
2023/01/20 03:59:48;;;;;;;56.22;18.48;;;;;;;-0.58;100.00;101105.53;5030403;28;20033;-78
2023/01/20 04:02:13;;;;;;;56.90;17.38;;;;;;;-0.56;100.00;101108.16;5031229;28;20036;-78
2023/01/20 04:04:42;;;;;;;53.53;16.90;;;;;;;-0.55;100.00;101109.94;5031730;28;20495;-75
2023/01/20 04:07:11;;;;;;;47.65;17.67;;;;;;;-0.54;100.00;101117.06;5030065;28;20033;-75
2023/01/20 04:09:45;;;;;;;57.15;17.20;;;;;;;-0.55;100.00;101112.63;5031118;28;20481;-75
2023/01/20 04:12:11;;;;;;;59.15;20.65;;;;;;;-0.55;100.00;101113.50;5030175;28;20037;-76
2023/01/20 04:14:36;;;;;;;54.55;19.80;;;;;;;-0.54;100.00;101117.94;5029672;28;20440;-75
2023/01/20 04:17:03;;;;;;;52.05;18.15;;;;;;;-0.55;100.00;101112.63;5040783;28;20041;-76
2023/01/20 04:19:29;;;;;;;51.08;18.92;;;;;;;-0.53;100.00;101119.69;5049911;28;20492;-76
2023/01/20 04:22:03;;;;;;;59.45;19.27;;;;;;;-0.53;100.00;101119.69;5050057;28;20073;-75
2023/01/20 04:24:41;;;;;;;57.85;18.17;;;;;;;-0.54;100.00;101114.38;5029632;28;20082;-76
2023/01/20 04:27:06;;;;;;;60.95;19.35;;;;;;;-0.57;100.00;101111.75;5029373;28;20183;-76
2023/01/20 04:29:31;;;;;;;64.10;20.27;;;;;;;-0.55;100.00;101110.84;5031335;28;20455;-76
2023/01/20 04:31:59;;;;;;;56.80;20.63;;;;;;;-0.56;100.00;101111.75;5030578;28;20040;-75
2023/01/20 04:34:24;;;;;;;56.80;18.73;;;;;;;-0.56;100.00;101108.16;5030865;28;20033;-75
2023/01/20 04:36:49;;;;;;;57.00;19.77;;;;;;;-0.56;100.00;101110.84;5030888;28;20037;-76
2023/01/20 04:39:15;;;;;;;55.63;19.08;;;;;;;-0.54;100.00;101114.38;5029452;28;20037;-76
2023/01/20 04:41:40;;;;;;;58.05;19.05;;;;;;;-0.56;100.00;101125.13;5029799;28;20537;-75
2023/01/20 04:44:06;;;;;;;61.08;20.63;;;;;;;-0.56;100.00;101113.50;5029058;28;20474;-75
2023/01/20 04:46:31;;;;;;;61.10;19.98;;;;;;;-0.57;100.00;101117.09;5028851;28;20547;-77
2023/01/20 04:48:56;;;;;;;44.65;17.13;;;;;;;-0.56;100.00;101124.19;5030708;28;20025;-75
2023/01/20 04:51:22;;;;;;;57.72;20.30;;;;;;;-0.53;100.00;101137.50;5013001;28;20036;-75
2023/01/20 04:53:47;;;;;;;52.92;18.73;;;;;;;-0.56;100.00;101133.13;5029222;28;20080;-76
2023/01/20 04:56:14;;;;;;;56.60;18.58;;;;;;;-0.57;100.00;101134.00;5022120;28;20033;-75
2023/01/20 04:58:41;;;;;;;62.00;21.70;;;;;;;-0.58;100.00;101137.59;5049139;28;20131;-76
2023/01/20 05:01:06;;;;;;;59.33;19.27;;;;;;;-0.58;100.00;101137.59;5036490;28;20431;-75
2023/01/20 05:03:33;;;;;;;53.03;17.95;;;;;;;-0.58;100.00;101139.41;5050520;28;20115;-76
2023/01/20 05:05:58;;;;;;;53.90;18.88;;;;;;;-0.60;100.00;101136.78;5032258;28;20032;-75
2023/01/20 05:08:23;;;;;;;51.10;16.98;;;;;;;-0.58;100.00;101137.59;5049770;28;20032;-75
2023/01/20 05:10:49;;;;;;;56.78;18.40;;;;;;;-0.60;100.00;101134.09;5048854;28;20141;-79
2023/01/20 05:13:14;;;;;;;59.33;19.50;;;;;;;-0.62;100.00;101129.69;5032464;28;20044;-76
2023/01/20 05:15:41;;;;;;;52.65;18.60;;;;;;;-0.62;100.00;101135.03;5036879;28;20033;-75
2023/01/20 05:18:06;;;;;;;51.97;19.35;;;;;;;-0.64;100.00;101137.75;5029277;28;20130;-75
2023/01/20 05:20:31;;;;;;;50.20;16.30;;;;;;;-0.65;100.00;101141.34;5029907;28;20064;-76
2023/01/20 05:22:57;;;;;;;56.05;19.23;;;;;;;-0.62;100.00;101149.28;5029015;28;20397;-75
2023/01/20 05:25:22;;;;;;;55.85;18.63;;;;;;;-0.64;100.00;101147.56;5046927;28;20457;-75
2023/01/20 05:27:48;;;;;;;55.47;19.08;;;;;;;-0.63;100.00;101146.63;5045769;28;20132;-75
2023/01/20 05:30:13;;;;;;;62.25;19.58;;;;;;;-0.63;100.00;101151.97;5032630;28;20033;-79
2023/01/20 05:32:39;;;;;;;56.20;19.17;;;;;;;-0.63;100.00;101151.97;5040447;28;20034;-75
2023/01/20 05:35:05;;;;;;;50.30;18.40;;;;;;;-0.62;100.00;101156.41;5030071;28;20021;-76
2023/01/20 05:37:30;;;;;;;54.78;17.77;;;;;;;-0.65;100.00;101144.00;5029639;28;20512;-75
2023/01/20 05:39:55;;;;;;;55.08;18.23;;;;;;;-0.64;100.00;101144.88;5030109;28;20441;-75
2023/01/20 05:42:21;;;;;;;53.70;19.55;;;;;;;-0.62;100.00;101145.72;5046295;28;20098;-75
2023/01/20 05:44:47;;;;;;;58.78;19.88;;;;;;;-0.61;100.00;101151.03;5047550;28;20444;-75
2023/01/20 05:47:12;;;;;;;53.75;18.90;;;;;;;-0.65;100.00;101146.69;5041141;28;20113;-75
2023/01/20 05:49:37;;;;;;;60.17;18.27;;;;;;;-0.64;100.00;101148.44;5033826;28;20094;-76
2023/01/20 05:52:03;;;;;;;55.63;19.45;;;;;;;-0.62;100.00;101154.59;5045471;28;20488;-76
2023/01/20 05:54:28;;;;;;;59.10;18.10;;;;;;;-0.63;100.00;101155.53;5033691;28;20380;-76
2023/01/20 05:56:53;;;;;;;56.22;18.90;;;;;;;-0.63;100.00;101151.97;5033922;28;20033;-75
2023/01/20 05:59:19;;;;;;;50.67;17.70;;;;;;;-0.61;100.00;101152.81;5033757;28;20025;-75
2023/01/20 06:01:44;;;;;;;46.70;16.48;;;;;;;-0.60;100.00;101158.16;5033703;28;20030;-76
2023/01/20 06:04:10;;;;;;;59.30;20.45;;;;;;;-0.62;100.00;101151.06;5033826;28;20534;-76
2023/01/20 06:06:35;;;;;;;55.22;18.63;;;;;;;-0.60;100.00;101159.94;5033468;28;20096;-76
2023/01/20 06:09:01;;;;;;;56.20;19.02;;;;;;;-0.58;100.00;101172.34;5033101;28;20424;-75
2023/01/20 06:11:26;;;;;;;49.40;17.23;;;;;;;-0.60;100.00;101162.63;5035557;28;20036;-76
2023/01/20 06:13:51;;;;;;;53.65;18.60;;;;;;;-0.57;100.00;101167.88;5051924;28;20513;-75
2023/01/20 06:16:17;;;;;;;52.50;17.60;;;;;;;-0.59;100.00;101169.72;5036260;28;20026;-75
2023/01/20 06:18:43;;;;;;;47.45;16.13;;;;;;;-0.59;100.00;101173.25;5032111;28;20076;-75
2023/01/20 06:21:08;;;;;;;48.15;16.50;;;;;;;-0.59;100.00;101164.38;5015836;28;20037;-76
2023/01/20 06:23:33;;;;;;;53.20;17.92;;;;;;;-0.59;100.00;101161.69;5044403;28;20465;-75
2023/01/20 06:26:01;;;;;;;50.55;17.40;;;;;;;-0.57;100.00;101173.22;5053114;28;20461;-76
2023/01/20 06:28:27;;;;;;;51.45;17.52;;;;;;;-0.59;100.00;101175.94;5051989;28;20480;-76
2023/01/20 06:31:05;;;;;;;53.83;17.27;;;;;;;-0.57;100.00;101174.09;5037953;28;20030;-76
2023/01/20 06:33:32;;;;;;;55.20;18.48;;;;;;;-0.56;100.00;101175.88;5048558;28;20341;-75
2023/01/20 06:35:57;;;;;;;53.97;19.38;;;;;;;-0.58;100.00;101169.66;5052989;28;20455;-75
2023/01/20 06:38:24;;;;;;;60.35;18.20;;;;;;;-0.55;100.00;101172.28;5039560;28;20080;-75
2023/01/20 06:40:54;;;;;;;53.58;18.30;;;;;;;-0.56;100.00;101166.94;5032829;28;20071;-75
2023/01/20 06:43:20;;;;;;;51.90;16.80;;;;;;;-0.56;100.00;101158.94;5032918;28;20056;-76
2023/01/20 06:45:45;;;;;;;45.63;16.70;;;;;;;-0.54;100.00;101154.47;5031566;28;20124;-75
2023/01/20 06:48:10;;;;;;;55.17;18.17;;;;;;;-0.54;100.00;101166.03;5032342;28;20044;-76
2023/01/20 06:50:36;;;;;;;53.67;18.73;;;;;;;-0.55;100.00;101166.06;5032700;28;20029;-75
2023/01/20 06:53:01;;;;;;;40.15;15.98;;;;;;;-0.53;100.00;101173.13;5031288;28;20037;-75
2023/01/20 06:55:27;;;;;;;51.72;17.33;;;;;;;-0.56;100.00;101165.19;5032617;28;20037;-76
2023/01/20 06:57:53;;;;;;;53.78;18.35;;;;;;;-0.55;100.00;101174.09;5032422;28;20044;-76
2023/01/20 07:00:19;;;;;;;50.40;17.70;;;;;;;-0.57;100.00;101163.41;5015049;28;20029;-76
2023/01/20 07:02:46;;;;;;;57.33;19.13;;;;;;;-0.55;100.00;101166.94;5032226;28;20037;-76
2023/01/20 07:05:12;;;;;;;49.67;18.23;;;;;;;-0.56;100.00;101158.94;5032743;28;20477;-76
2023/01/20 07:07:37;;;;;;;48.72;17.25;;;;;;;-0.56;100.00;101166.94;5031195;28;20040;-75
2023/01/20 07:10:03;;;;;;;49.40;17.23;;;;;;;-0.54;100.00;101173.16;5014843;28;20353;-76
2023/01/20 07:12:28;;;;;;;59.22;19.83;;;;;;;-0.56;100.00;101169.63;5030994;28;20053;-75
2023/01/20 07:14:53;;;;;;;54.80;17.80;;;;;;;-0.58;100.00;101169.66;5031107;28;20428;-75
2023/01/20 07:17:19;;;;;;;52.72;16.67;;;;;;;-0.57;100.00;101165.19;5031967;28;20029;-75
2023/01/20 07:19:44;;;;;;;50.75;18.00;;;;;;;-0.57;100.00;101174.09;5032286;28;20715;-76
2023/01/20 07:22:09;;;;;;;47.05;17.05;;;;;;;-0.55;100.00;101182.09;5032595;28;20507;-76
2023/01/20 07:24:35;;;;;;;51.45;17.13;;;;;;;-0.55;100.00;101187.44;5030871;28;20445;-76
2023/01/20 07:27:00;;;;;;;60.80;18.45;;;;;;;-0.57;100.00;101186.56;5030786;28;20255;-75
2023/01/20 07:29:26;;;;;;;49.88;15.95;;;;;;;-0.58;100.00;101183.03;5032162;28;20386;-75
2023/01/20 07:31:51;;;;;;;45.83;16.50;;;;;;;-0.56;100.00;101196.34;5030147;28;20033;-76
2023/01/20 07:34:17;;;;;;;50.72;17.83;;;;;;;-0.59;100.00;101188.41;5032058;28;20052;-75
2023/01/20 07:36:42;;;;;;;48.90;16.60;;;;;;;-0.55;100.00;101203.47;5014185;28;20531;-77
2023/01/20 07:39:11;;;;;;;52.85;17.63;;;;;;;-0.54;100.00;101208.78;5034627;28;20045;-76
2023/01/20 07:41:37;;;;;;;55.75;19.23;;;;;;;-0.52;100.00;101208.72;5050415;28;20049;-77
2023/01/20 07:44:03;;;;;;;57.15;17.48;;;;;;;-0.52;100.00;101204.25;5050444;28;20298;-75
2023/01/20 07:46:28;;;;;;;45.65;16.65;;;;;;;-0.48;100.00;101212.22;5044838;28;20040;-76
2023/01/20 07:48:55;;;;;;;46.05;17.13;;;;;;;-0.48;100.00;101214.91;5031473;28;20132;-76
2023/01/20 07:51:20;;;;;;;48.40;17.58;;;;;;;-0.49;100.00;101218.50;5030138;28;20484;-77
2023/01/20 07:53:49;;;;;;;47.60;17.20;;;;;;;-0.45;100.00;101218.41;5030543;28;20080;-76
2023/01/20 07:56:26;;;;;;;48.58;17.05;;;;;;;-0.44;100.00;101216.59;5030258;28;20029;-76
2023/01/20 07:58:53;;;;;;;42.33;15.55;;;;;;;-0.45;100.00;101218.41;5031483;28;20099;-75
2023/01/20 08:01:20;;;;;;;47.78;17.27;;;;;;;-0.45;100.00;101213.06;5030022;28;20119;-76
2023/01/20 08:03:46;;;;;;;43.53;16.45;;;;;;;-0.41;100.00;101227.22;5030225;28;20484;-75
2023/01/20 08:06:14;;;;;;;41.45;15.40;;;;;;;-0.40;100.00;101226.31;5029712;28;20041;-76
2023/01/20 08:08:40;;;;;;;46.58;15.50;;;;;;;-0.40;100.00;101224.53;5030471;28;20021;-77
2023/01/20 08:11:07;;;;;;;46.70;17.13;;;;;;;-0.38;100.00;101227.16;5031118;28;20505;-75
2023/01/20 08:13:33;;;;;;;41.83;15.05;;;;;;;-0.38;100.00;101221.81;5031612;28;20028;-76
2023/01/20 08:16:00;;;;;;;48.20;15.13;;;;;;;-0.37;100.00;101226.25;5029310;28;20033;-76
2023/01/20 08:18:26;;;;;;;46.53;16.30;;;;;;;-0.38;100.00;101230.69;5030116;28;20022;-76
2023/01/20 08:20:51;;;;;;;39.88;14.40;;;;;;;-0.39;100.00;101222.72;5029575;28;20617;-76
2023/01/20 08:23:16;;;;;;;42.40;15.20;;;;;;;-0.35;100.00;101232.44;5029808;28;20022;-76
2023/01/20 08:25:42;;;;;;;38.85;14.82;;;;;;;-0.39;100.00;101231.63;5030904;28;20087;-76
2023/01/20 08:28:07;;;;;;;40.83;15.80;;;;;;;-0.41;100.00;101217.41;5029709;28;20043;-76
2023/01/20 08:30:33;;;;;;;39.15;15.82;;;;;;;-0.36;100.00;101225.34;5029726;28;20112;-76
2023/01/20 08:32:58;;;;;;;35.75;14.48;;;;;;;-0.33;100.00;101222.59;5036073;28;20092;-76
2023/01/20 08:35:24;;;;;;;39.25;15.55;;;;;;;-0.36;100.00;101223.53;5030528;28;20037;-76
2023/01/20 08:37:49;;;;;;;44.38;15.90;;;;;;;-0.35;100.00;101232.44;5041966;28;20029;-76
2023/01/20 08:40:15;;;;;;;38.88;15.05;;;;;;;-0.37;100.00;101235.16;5050826;28;20067;-76
2023/01/20 08:42:40;;;;;;;37.85;14.35;;;;;;;-0.40;100.00;101224.53;5043492;28;20052;-76
2023/01/20 08:45:07;;;;;;;32.88;13.63;;;;;;;-0.38;100.00;101232.50;5029107;28;20044;-76
2023/01/20 08:47:43;;;;;;;33.60;14.07;;;;;;;-0.38;100.00;101241.38;5030586;28;20111;-78
2023/01/20 08:50:10;;;;;;;36.92;13.77;;;;;;;-0.40;100.00;101231.66;5013021;28;20041;-76
2023/01/20 08:52:36;;;;;;;36.42;14.07;;;;;;;-0.38;100.00;101238.72;5030297;28;20403;-75
2023/01/20 08:55:02;;;;;;;33.47;12.73;;;;;;;-0.38;100.00;101246.72;5028998;28;20124;-75
2023/01/20 08:57:27;;;;;;;35.85;13.57;;;;;;;-0.37;100.00;101251.19;5028714;28;20041;-76
2023/01/20 08:59:53;;;;;;;35.58;14.68;;;;;;;-0.35;100.00;101248.47;5032700;28;20120;-75
2023/01/20 09:02:19;;;;;;;37.78;14.18;;;;;;;-0.34;100.00;101252.91;5028803;28;20026;-76
2023/01/20 09:04:45;;;;;;;37.10;14.55;;;;;;;-0.36;100.00;101250.28;5030649;28;20037;-76
2023/01/20 09:07:11;;;;;;;33.40;13.10;;;;;;;-0.35;100.00;101253.81;5030443;28;20461;-76
2023/01/20 09:09:37;;;;;;;33.72;12.60;;;;;;;-0.30;100.00;101258.16;5030041;28;20037;-76
2023/01/20 09:12:04;;;;;;;37.60;14.38;;;;;;;-0.27;100.00;101255.44;5012618;28;20041;-78
2023/01/20 09:14:30;;;;;;;31.73;12.98;;;;;;;-0.26;100.00;101250.97;5030570;28;20435;-76
2023/01/20 09:16:55;;;;;;;30.65;11.05;;;;;;;-0.21;100.00;101246.38;5029147;28;20041;-76
2023/01/20 09:19:21;;;;;;;31.25;12.35;;;;;;;-0.21;100.00;101259.75;5012549;28;20373;-76
2023/01/20 09:21:46;;;;;;;36.53;12.32;;;;;;;-0.19;100.00;101254.38;5011783;28;20033;-75
2023/01/20 09:24:12;;;;;;;35.78;14.55;;;;;;;-0.17;100.00;101258.78;5030135;28;20108;-75
2023/01/20 09:26:37;;;;;;;31.00;13.07;;;;;;;-0.16;100.00;101259.66;5029249;28;20091;-75
2023/01/20 09:29:08;;;;;;;35.92;13.52;;;;;;;-0.13;100.00;101268.50;5029737;28;20456;-75
2023/01/20 09:31:35;;;;;;;32.45;12.52;;;;;;;-0.11;100.00;101265.78;5029483;28;20056;-75
2023/01/20 09:34:01;;;;;;;33.08;13.52;;;;;;;-0.12;100.00;101266.69;5029606;28;20063;-75
2023/01/20 09:36:29;;;;;;;37.15;12.68;;;;;;;-0.12;100.00;101264.91;5028564;28;20067;-75
2023/01/20 09:44:48;;;;;;;34.40;13.02;;;;;;;-0.08;100.00;101273.75;5009319;28;20199;-74
2023/01/20 09:47:30;;;;;;;35.85;13.32;;;;;;;-0.08;100.00;101273.75;5029440;28;20438;-77
2023/01/20 09:53:35;;;;;;;31.02;12.98;;;;;;;-0.07;100.00;101267.47;5028382;28;20046;-74
2023/01/20 09:56:08;;;;;;;29.42;12.45;;;;;;;-0.09;100.00;101274.66;5027930;28;20044;-74
2023/01/20 09:58:37;;;;;;;;;;;;;;;-0.07;100.00;101265.69;5029905;28;20484;-75
2023/01/20 10:01:17;;;;;;;28.95;11.52;;;;;;;-0.10;100.00;101264.84;5030487;28;19925;-74
2023/01/20 10:04:10;;;;;;;31.67;13.35;;;;;;;-0.10;100.00;101267.53;5029831;28;20039;-75
2023/01/20 10:06:41;;;;;;;;;;;;;;;-0.07;100.00;101262.13;5032667;28;20058;-76
2023/01/20 10:09:23;;;;;;;31.05;12.57;;;;;;;-0.11;100.00;101260.44;5049086;28;19959;-75
2023/01/20 10:11:55;;;;;;;28.02;11.30;;;;;;;-0.12;100.00;101253.34;5049000;28;20040;-74
2023/01/20 10:14:28;;;;;;;27.15;12.77;;;;;;;-0.14;100.00;101255.13;5046528;28;20029;-75
2023/01/20 10:17:06;;;;;;;26.88;11.00;;;;;;;-0.11;100.00;101263.09;5040241;28;20029;-75
2023/01/20 10:20:09;;;;;;;25.65;10.70;;;;;;;-0.14;100.00;101268.50;5027600;28;20033;-75
2023/01/20 10:22:52;;;;;;;28.50;10.93;;;;;;;-0.15;100.00;101262.28;5026386;28;20056;-75
2023/01/20 10:25:24;;;;;;;28.17;10.70;;;;;;;-0.13;100.00;101270.31;5029325;28;20029;-75
2023/01/20 10:27:56;;;;;;;27.15;12.25;;;;;;;-0.14;100.00;101260.50;5028972;28;20049;-75
2023/01/20 10:30:25;;;;;;;25.97;11.27;;;;;;;-0.15;100.00;101256.94;5029703;28;20116;-74
2023/01/20 10:33:01;;;;;;;23.55;10.02;;;;;;;-0.12;100.00;101270.25;5032695;28;20354;-76
2023/01/20 10:35:30;;;;;;;23.17;10.00;;;;;;;-0.11;100.00;101263.09;5032563;28;20100;-75
2023/01/20 10:37:57;;;;;;;24.08;10.10;;;;;;;-0.10;100.00;101260.38;5031933;28;20116;-75
2023/01/20 10:40:25;;;;;;;26.58;10.15;;;;;;;-0.08;100.00;101261.25;5032289;28;20358;-75
2023/01/20 10:42:56;;;;;;;20.10;10.07;;;;;;;-0.05;100.00;101261.19;5032247;28;20057;-76
2023/01/20 10:45:51;;;;;;;22.63;9.65;;;;;;;-0.07;100.00;101252.31;5037065;28;20029;-75
2023/01/20 10:48:39;;;;;;;20.35;9.10;;;;;;;0.00;100.00;101261.09;5049075;28;20059;-75
2023/01/20 10:51:41;;;;;;;18.88;9.00;;;;;;;0.03;100.00;101261.00;5039564;28;20511;-75
2023/01/20 10:54:10;;;;;;;19.10;9.07;;;;;;;0.06;100.00;101265.44;5030778;28;20033;-75
2023/01/20 10:56:52;;;;;;;19.05;8.90;;;;;;;0.10;100.00;101267.13;5030625;28;20377;-76
2023/01/20 10:59:32;;;;;;;17.30;8.43;;;;;;;0.13;100.00;101261.69;5031716;28;20034;-74
2023/01/20 11:02:12;;;;;;;22.23;8.82;;;;;;;0.17;100.00;101261.56;5046766;28;20091;-75
2023/01/20 11:04:37;;;;;;;16.63;7.88;;;;;;;0.23;100.00;101264.13;5051508;28;20044;-74
2023/01/20 11:07:07;;;;;;;17.45;9.20;;;;;;;0.31;100.00;101261.25;5050448;28;20515;-74
2023/01/20 11:09:38;;;;;;;16.05;7.93;;;;;;;0.36;100.00;101262.03;5051533;28;20048;-74
2023/01/20 11:12:11;;;;;;;19.17;9.02;;;;;;;0.42;100.00;101264.56;5045207;28;20472;-74
2023/01/20 11:14:37;;;;;;;17.13;8.43;;;;;;;0.44;100.00;101268.09;5031479;28;20029;-74
2023/01/20 11:17:06;;;;;;;16.00;8.27;;;;;;;0.47;100.00;101273.38;5029730;28;20039;-75
2023/01/20 11:19:52;;;;;;;18.33;9.05;;;;;;;0.44;100.00;101270.75;5030160;28;20455;-74
2023/01/20 11:22:34;;;;;;;17.27;8.80;;;;;;;0.46;100.00;101276.06;5029997;28;20033;-75